Freeburg, Missouri
Current Conditions -  °F | °C
As of 8:01 AM on Friday 31 Oct 2014 (Local Time) from KVIH Reporting Station
Overcast Overcast  
Wind Chill: 38°   Ceiling: 3100
Heat Index: 45°   Visibility: 10mi
Dew Point: 37°   Wind: 17mph
Humidity: 74%   Direction: 350°N
Pressure: 30.21"   Gusts: 28mph
Location:  38.32°N, 91.92°W
Report Text: KVIH 311301Z AUTO 35015G24KT 10SM OVC031 07/03 A3021 RMK AO2 T00720028
Loading
Personal Weather Stations






























Interactive Weather Map
Tropical Storm Tracking
New forecast layout! Learn more

10-Day Weather Forecast

Advertisements
Track Severe Weather on mobile